sensor_id;sensor_type;location;lat;lon;timestamp;pressure;altitude;pressure_sealevel;temperature;humidity
44001;BME280;29660;42.892;24.710;2023-05-23T00:02:43;96967.53;;;10.16;100.00
44001;BME280;29660;42.892;24.710;2023-05-23T00:08:05;96254.50;;;6.01;100.00
44001;BME280;29660;42.892;24.710;2023-05-23T00:13:27;96359.97;;;6.62;100.00
44001;BME280;29660;42.892;24.710;2023-05-23T00:18:50;96349.94;;;6.59;100.00
44001;BME280;29660;42.892;24.710;2023-05-23T00:24:12;96238.41;;;5.87;100.00
44001;BME280;29660;42.892;24.710;2023-05-23T00:29:35;96787.31;;;9.40;100.00
44001;BME280;29660;42.892;24.710;2023-05-23T00:34:57;96710.50;;;8.85;100.00
44001;BME280;29660;42.892;24.710;2023-05-23T00:40:20;96873.34;;;9.83;100.00
44001;BME280;29660;42.892;24.710;2023-05-23T00:45:42;96353.16;;;6.51;100.00
44001;BME280;29660;42.892;24.710;2023-05-23T00:51:05;96840.50;;;9.45;100.00
44001;BME280;29660;42.892;24.710;2023-05-23T00:56:27;96319.47;;;6.23;100.00
44001;BME280;29660;42.892;24.710;2023-05-23T01:01:50;96237.81;;;5.56;100.00
44001;BME280;29660;42.892;24.710;2023-05-23T01:07:13;96589.78;;;7.80;100.00
44001;BME280;29660;42.892;24.710;2023-05-23T01:13:00;96120.84;;;4.71;100.00
44001;BME280;29660;42.892;24.710;2023-05-23T01:29:57;96219.06;;;5.48;100.00
44001;BME280;29660;42.892;24.710;2023-05-23T01:35:24;96170.06;;;5.16;100.00
44001;BME280;29660;42.892;24.710;2023-05-23T01:40:49;96797.78;;;9.07;100.00
44001;BME280;29660;42.892;24.710;2023-05-23T01:46:12;96903.81;;;9.48;100.00
44001;BME280;29660;42.892;24.710;2023-05-23T01:51:35;96843.72;;;9.42;100.00
44001;BME280;29660;42.892;24.710;2023-05-23T01:56:58;96204.91;;;5.28;100.00
44001;BME280;29660;42.892;24.710;2023-05-23T02:02:21;96674.88;;;8.28;100.00
44001;BME280;29660;42.892;24.710;2023-05-23T02:07:43;96594.59;;;7.73;100.00
44001;BME280;29660;42.892;24.710;2023-05-23T02:13:05;96231.81;;;5.40;100.00
44001;BME280;29660;42.892;24.710;2023-05-23T02:18:28;96811.59;;;9.09;100.00
44001;BME280;29660;42.892;24.710;2023-05-23T02:23:50;96874.94;;;9.36;100.00
44001;BME280;29660;42.892;24.710;2023-05-23T02:29:12;95754.75;;;2.07;100.00
44001;BME280;29660;42.892;24.710;2023-05-23T02:34:35;96324.16;;;5.81;100.00
44001;BME280;29660;42.892;24.710;2023-05-23T02:39:59;96341.34;;;5.89;100.00
44001;BME280;29660;42.892;24.710;2023-05-23T02:45:22;96762.66;;;8.52;100.00
44001;BME280;29660;42.892;24.710;2023-05-23T02:50:45;96233.22;;;5.17;100.00
44001;BME280;29660;42.892;24.710;2023-05-23T02:56:07;96207.94;;;4.96;100.00
44001;BME280;29660;42.892;24.710;2023-05-23T03:01:30;96864.97;;;9.18;100.00
44001;BME280;29660;42.892;24.710;2023-05-23T03:06:52;96064.59;;;3.90;100.00
44001;BME280;29660;42.892;24.710;2023-05-23T03:12:21;96725.09;;;8.29;100.00
44001;BME280;29660;42.892;24.710;2023-05-23T03:17:43;96760.22;;;8.55;100.00
44001;BME280;29660;42.892;24.710;2023-05-23T03:23:08;96880.56;;;9.29;100.00
44001;BME280;29660;42.892;24.710;2023-05-23T03:28:30;96365.09;;;6.04;100.00
44001;BME280;29660;42.892;24.710;2023-05-23T03:33:53;96845.91;;;9.34;100.00
44001;BME280;29660;42.892;24.710;2023-05-23T03:39:15;96874.31;;;9.68;100.00
44001;BME280;29660;42.892;24.710;2023-05-23T03:44:37;96292.41;;;5.81;100.00
44001;BME280;29660;42.892;24.710;2023-05-23T03:50:00;96146.25;;;5.21;100.00
44001;BME280;29660;42.892;24.710;2023-05-23T03:55:23;96715.03;;;9.32;100.00
44001;BME280;29660;42.892;24.710;2023-05-23T04:00:46;96833.09;;;10.46;100.00
44001;BME280;29660;42.892;24.710;2023-05-23T04:06:10;96861.44;;;11.54;100.00
44001;BME280;29660;42.892;24.710;2023-05-23T04:11:36;96251.13;;;8.30;100.00
44001;BME280;29660;42.892;24.710;2023-05-23T04:16:59;96895.69;;;13.16;100.00
44001;BME280;29660;42.892;24.710;2023-05-23T04:22:22;96402.69;;;11.20;100.00
44001;BME280;29660;42.892;24.710;2023-05-23T04:27:45;96156.25;;;9.77;100.00
44001;BME280;29660;42.892;24.710;2023-05-23T04:33:08;96722.03;;;13.00;100.00
44001;BME280;29660;42.892;24.710;2023-05-23T04:38:31;96390.88;;;10.31;100.00
44001;BME280;29660;42.892;24.710;2023-05-23T04:43:54;96897.41;;;13.34;100.00
44001;BME280;29660;42.892;24.710;2023-05-23T04:49:35;96590.94;;;11.76;100.00
44001;BME280;29660;42.892;24.710;2023-05-23T04:54:57;96375.56;;;11.26;100.00
44001;BME280;29660;42.892;24.710;2023-05-23T05:00:19;96299.28;;;10.94;100.00
44001;BME280;29660;42.892;24.710;2023-05-23T05:05:42;96850.75;;;14.32;100.00
44001;BME280;29660;42.892;24.710;2023-05-23T05:11:04;96801.63;;;13.88;100.00
44001;BME280;29660;42.892;24.710;2023-05-23T05:16:27;96609.94;;;13.08;100.00
44001;BME280;29660;42.892;24.710;2023-05-23T05:21:49;96627.06;;;13.38;100.00
44001;BME280;29660;42.892;24.710;2023-05-23T05:27:11;96431.03;;;12.40;100.00
44001;BME280;29660;42.892;24.710;2023-05-23T05:32:34;96876.81;;;15.01;100.00
44001;BME280;29660;42.892;24.710;2023-05-23T05:37:57;96348.06;;;12.06;100.00
44001;BME280;29660;42.892;24.710;2023-05-23T05:43:20;96315.09;;;12.19;100.00
44001;BME280;29660;42.892;24.710;2023-05-23T05:48:44;96365.09;;;12.96;100.00
44001;BME280;29660;42.892;24.710;2023-05-23T05:54:07;96330.78;;;12.98;100.00
44001;BME280;29660;42.892;24.710;2023-05-23T05:59:30;96887.75;;;16.58;100.00
44001;BME280;29660;42.892;24.710;2023-05-23T06:04:53;96275.13;;;12.57;100.00
44001;BME280;29660;42.892;24.710;2023-05-23T06:10:16;96875.88;;;16.80;100.00
44001;BME280;29660;42.892;24.710;2023-05-23T06:15:38;96874.03;;;16.92;100.00
44001;BME280;29660;42.892;24.710;2023-05-23T06:21:01;96751.59;;;15.94;100.00
44001;BME280;29660;42.892;24.710;2023-05-23T06:26:23;96691.50;;;15.69;100.00
44001;BME280;29660;42.892;24.710;2023-05-23T06:31:46;96372.88;;;13.54;100.00
44001;BME280;29660;42.892;24.710;2023-05-23T06:37:08;96881.09;;;17.18;100.00
44001;BME280;29660;42.892;24.710;2023-05-23T06:42:31;96375.72;;;13.87;100.00
44001;BME280;29660;42.892;24.710;2023-05-23T06:48:16;96604.72;;;15.39;100.00
44001;BME280;29660;42.892;24.710;2023-05-23T06:53:39;96506.31;;;14.63;100.00
44001;BME280;29660;42.892;24.710;2023-05-23T06:59:01;96334.78;;;14.07;100.00
44001;BME280;29660;42.892;24.710;2023-05-23T07:04:24;96375.84;;;14.49;100.00
44001;BME280;29660;42.892;24.710;2023-05-23T07:09:48;96360.94;;;14.61;100.00
44001;BME280;29660;42.892;24.710;2023-05-23T07:15:13;95975.88;;;12.26;100.00
44001;BME280;29660;42.892;24.710;2023-05-23T07:20:47;96760.97;;;17.41;100.00
44001;BME280;29660;42.892;24.710;2023-05-23T07:26:12;96748.38;;;17.82;100.00
44001;BME280;29660;42.892;24.710;2023-05-23T07:31:40;96344.34;;;15.58;99.05
44001;BME280;29660;42.892;24.710;2023-05-23T07:37:06;96887.50;;;19.25;100.00
44001;BME280;29660;42.892;24.710;2023-05-23T07:42:35;96799.69;;;18.75;96.36
44001;BME280;29660;42.892;24.710;2023-05-23T07:47:58;96348.41;;;16.78;88.98
44001;BME280;29660;42.892;24.710;2023-05-23T07:53:20;96346.25;;;17.28;87.58
44001;BME280;29660;42.892;24.710;2023-05-23T07:58:47;95994.75;;;15.23;86.19
44001;BME280;29660;42.892;24.710;2023-05-23T08:04:10;96715.53;;;20.07;80.49
44001;BME280;29660;42.892;24.710;2023-05-23T08:09:38;96712.00;;;20.22;77.06
44001;BME280;29660;42.892;24.710;2023-05-23T08:15:03;96818.91;;;21.06;77.50
44001;BME280;29660;42.892;24.710;2023-05-23T08:20:31;96764.78;;;20.90;74.59
44001;BME280;29660;42.892;24.710;2023-05-23T08:25:54;96424.88;;;18.21;74.12
44001;BME280;29660;42.892;24.710;2023-05-23T08:31:19;96605.31;;;19.33;74.45
44001;BME280;29660;42.892;24.710;2023-05-23T08:36:41;96498.59;;;19.08;75.42
44001;BME280;29660;42.892;24.710;2023-05-23T08:42:09;96305.03;;;18.26;66.18
44001;BME280;29660;42.892;24.710;2023-05-23T08:47:35;96674.22;;;20.29;69.48
44001;BME280;29660;42.892;24.710;2023-05-23T08:52:59;96802.34;;;21.53;73.12
44001;BME280;29660;42.892;24.710;2023-05-23T08:58:24;96201.88;;;17.78;69.74
44001;BME280;29660;42.892;24.710;2023-05-23T09:03:51;96343.13;;;18.95;65.71
44001;BME280;29660;42.892;24.710;2023-05-23T09:09:19;96666.75;;;20.84;64.14
44001;BME280;29660;42.892;24.710;2023-05-23T09:14:43;96351.78;;;19.04;64.57
44001;BME280;29660;42.892;24.710;2023-05-23T09:20:11;96585.22;;;20.28;62.47
44001;BME280;29660;42.892;24.710;2023-05-23T09:25:47;96424.91;;;19.30;62.95
44001;BME280;29660;42.892;24.710;2023-05-23T09:31:10;96761.38;;;21.36;69.75
44001;BME280;29660;42.892;24.710;2023-05-23T09:36:33;96217.47;;;18.04;67.52
44001;BME280;29660;42.892;24.710;2023-05-23T09:41:58;96434.84;;;19.46;68.95
44001;BME280;29660;42.892;24.710;2023-05-23T09:47:20;96765.22;;;21.58;68.62
44001;BME280;29660;42.892;24.710;2023-05-23T09:52:43;96339.16;;;18.88;68.51
44001;BME280;29660;42.892;24.710;2023-05-23T09:58:06;96764.91;;;21.63;65.71
44001;BME280;29660;42.892;24.710;2023-05-23T10:03:39;96789.25;;;21.59;64.40
44001;BME280;29660;42.892;24.710;2023-05-23T10:09:07;96657.75;;;20.57;68.14
44001;BME280;29660;42.892;24.710;2023-05-23T10:14:34;96355.44;;;18.37;71.10
44001;BME280;29660;42.892;24.710;2023-05-23T10:20:00;96766.34;;;20.68;72.48
44001;BME280;29660;42.892;24.710;2023-05-23T10:25:26;96345.75;;;17.70;79.91
44001;BME280;29660;42.892;24.710;2023-05-23T10:30:49;96254.03;;;16.47;90.97
44001;BME280;29660;42.892;24.710;2023-05-23T10:36:18;96288.88;;;16.03;100.00
44001;BME280;29660;42.892;24.710;2023-05-23T10:42:06;96661.19;;;17.78;100.00
44001;BME280;29660;42.892;24.710;2023-05-23T10:47:32;96309.00;;;15.11;100.00
44001;BME280;29660;42.892;24.710;2023-05-23T10:52:55;96268.97;;;14.85;100.00
44001;BME280;29660;42.892;24.710;2023-05-23T10:58:19;96885.78;;;18.77;100.00
44001;BME280;29660;42.892;24.710;2023-05-23T11:09:12;96813.41;;;18.70;100.00
44001;BME280;29660;42.892;24.710;2023-05-23T11:20:04;96718.72;;;18.23;100.00
44001;BME280;29660;42.892;24.710;2023-05-23T11:25:40;96824.81;;;18.92;100.00
44001;BME280;29660;42.892;24.710;2023-05-23T11:31:03;96354.34;;;15.82;100.00
44001;BME280;29660;42.892;24.710;2023-05-23T11:36:25;96827.69;;;18.83;100.00
44001;BME280;29660;42.892;24.710;2023-05-23T11:42:01;96130.75;;;15.03;100.00
44001;BME280;29660;42.892;24.710;2023-05-23T11:47:24;96840.94;;;20.11;100.00
44001;BME280;29660;42.892;24.710;2023-05-23T11:52:47;96714.34;;;20.04;99.10
44001;BME280;29660;42.892;24.710;2023-05-23T11:58:12;96376.13;;;17.82;99.20
44001;BME280;29660;42.892;24.710;2023-05-23T12:03:44;96266.44;;;17.55;94.26
44001;BME280;29660;42.892;24.710;2023-05-23T12:09:10;96517.56;;;19.66;90.87
44001;BME280;29660;42.892;24.710;2023-05-23T12:14:33;96258.31;;;18.22;87.70
44001;BME280;29660;42.892;24.710;2023-05-23T12:19:55;96650.22;;;21.16;81.19
44001;BME280;29660;42.892;24.710;2023-05-23T12:25:17;96706.34;;;21.92;78.61
44001;BME280;29660;42.892;24.710;2023-05-23T12:30:41;96711.50;;;22.27;75.33
44001;BME280;29660;42.892;24.710;2023-05-23T12:36:04;96444.38;;;20.77;65.56
44001;BME280;29660;42.892;24.710;2023-05-23T12:41:27;96621.69;;;22.50;64.03
44001;BME280;29660;42.892;24.710;2023-05-23T12:46:49;96575.84;;;22.45;66.20
44001;BME280;29660;42.892;24.710;2023-05-23T12:52:11;96350.44;;;21.22;54.14
44001;BME280;29660;42.892;24.710;2023-05-23T12:57:34;96629.59;;;23.03;58.63
44001;BME280;29660;42.892;24.710;2023-05-23T13:02:57;96555.28;;;22.92;53.28
44001;BME280;29660;42.892;24.710;2023-05-23T13:08:19;96645.88;;;23.58;49.50
44001;BME280;29660;42.892;24.710;2023-05-23T13:13:42;96406.22;;;21.57;51.79
44001;BME280;29660;42.892;24.710;2023-05-23T13:19:04;96169.06;;;19.72;51.45
44001;BME280;29660;42.892;24.710;2023-05-23T13:24:26;95773.41;;;16.84;54.65
44001;BME280;29660;42.892;24.710;2023-05-23T13:29:48;96259.56;;;20.34;53.12
44001;BME280;29660;42.892;24.710;2023-05-23T13:35:11;96569.91;;;22.76;53.47
44001;BME280;29660;42.892;24.710;2023-05-23T13:40:33;96596.38;;;22.87;51.91
44001;BME280;29660;42.892;24.710;2023-05-23T13:45:55;96558.31;;;22.87;50.41
44001;BME280;29660;42.892;24.710;2023-05-23T13:51:18;96540.75;;;22.73;47.68
44001;BME280;29660;42.892;24.710;2023-05-23T13:56:40;96529.66;;;22.93;48.86
44001;BME280;29660;42.892;24.710;2023-05-23T14:02:02;96564.34;;;23.14;48.90
44001;BME280;29660;42.892;24.710;2023-05-23T14:07:24;96502.63;;;23.25;47.64
44001;BME280;29660;42.892;24.710;2023-05-23T14:12:46;96664.13;;;24.27;46.48
44001;BME280;29660;42.892;24.710;2023-05-23T14:18:09;96392.94;;;22.34;44.58
44001;BME280;29660;42.892;24.710;2023-05-23T14:23:31;96160.19;;;20.72;46.01
44001;BME280;29660;42.892;24.710;2023-05-23T14:28:53;96612.59;;;23.83;45.10
44001;BME280;29660;42.892;24.710;2023-05-23T14:34:15;95741.44;;;18.31;45.56
44001;BME280;29660;42.892;24.710;2023-05-23T14:39:37;96636.00;;;23.98;45.17
44001;BME280;29660;42.892;24.710;2023-05-23T14:45:02;96520.06;;;23.13;45.09
44001;BME280;29660;42.892;24.710;2023-05-23T14:50:25;96615.50;;;23.49;45.00
44001;BME280;29660;42.892;24.710;2023-05-23T14:55:47;95750.47;;;17.86;45.87
44001;BME280;29660;42.892;24.710;2023-05-23T15:01:11;96600.81;;;23.06;46.85
44001;BME280;29660;42.892;24.710;2023-05-23T15:06:34;96615.09;;;23.47;46.55
44001;BME280;29660;42.892;24.710;2023-05-23T15:11:58;96625.13;;;23.36;46.50
44001;BME280;29660;42.892;24.710;2023-05-23T15:17:21;96600.88;;;23.71;46.63
44001;BME280;29660;42.892;24.710;2023-05-23T15:22:55;96597.41;;;23.85;45.95
44001;BME280;29660;42.892;24.710;2023-05-23T15:28:17;96609.91;;;23.93;45.63
44001;BME280;29660;42.892;24.710;2023-05-23T15:33:41;96376.16;;;22.17;46.18
44001;BME280;29660;42.892;24.710;2023-05-23T15:39:03;96618.44;;;22.34;53.16
44001;BME280;29660;42.892;24.710;2023-05-23T15:44:27;96179.38;;;18.48;59.17
44001;BME280;29660;42.892;24.710;2023-05-23T15:49:49;96151.78;;;17.96;62.08
44001;BME280;29660;42.892;24.710;2023-05-23T15:55:11;96150.97;;;17.76;62.10
44001;BME280;29660;42.892;24.710;2023-05-23T16:00:34;96686.13;;;20.87;63.30
44001;BME280;29660;42.892;24.710;2023-05-23T16:05:56;96178.38;;;17.27;64.45
44001;BME280;29660;42.892;24.710;2023-05-23T16:11:18;96206.72;;;17.72;64.15
44001;BME280;29660;42.892;24.710;2023-05-23T16:16:42;96707.09;;;20.90;62.08
44001;BME280;29660;42.892;24.710;2023-05-23T16:22:04;96626.50;;;20.21;63.98
44001;BME280;29660;42.892;24.710;2023-05-23T16:27:26;96118.19;;;16.88;64.41
44001;BME280;29660;42.892;24.710;2023-05-23T16:32:49;96142.94;;;16.93;65.49
44001;BME280;29660;42.892;24.710;2023-05-23T16:38:11;96665.81;;;20.34;66.16
44001;BME280;29660;42.892;24.710;2023-05-23T16:43:34;96560.78;;;19.63;66.43
44001;BME280;29660;42.892;24.710;2023-05-23T16:48:56;96546.78;;;19.06;67.70
44001;BME280;29660;42.892;24.710;2023-05-23T16:54:18;96147.59;;;16.65;67.62
44001;BME280;29660;42.892;24.710;2023-05-23T16:59:40;95956.47;;;15.26;68.37
44001;BME280;29660;42.892;24.710;2023-05-23T17:05:03;96679.31;;;19.76;73.66
44001;BME280;29660;42.892;24.710;2023-05-23T17:10:25;96558.28;;;18.52;80.38
44001;BME280;29660;42.892;24.710;2023-05-23T17:15:47;96451.03;;;17.29;83.41
44001;BME280;29660;42.892;24.710;2023-05-23T17:21:10;96716.72;;;18.92;86.97
44001;BME280;29660;42.892;24.710;2023-05-23T17:26:32;96671.63;;;18.20;91.29
44001;BME280;29660;42.892;24.710;2023-05-23T17:31:54;96637.38;;;17.56;95.98
44001;BME280;29660;42.892;24.710;2023-05-23T17:37:17;96576.84;;;16.76;98.85
44001;BME280;29660;42.892;24.710;2023-05-23T17:42:39;96746.81;;;17.69;99.69
44001;BME280;29660;42.892;24.710;2023-05-23T17:48:02;96130.84;;;13.49;100.00
44001;BME280;29660;42.892;24.710;2023-05-23T17:53:25;96151.75;;;13.35;100.00
44001;BME280;29660;42.892;24.710;2023-05-23T17:58:48;96499.75;;;15.23;100.00
44001;BME280;29660;42.892;24.710;2023-05-23T18:04:10;96745.31;;;16.65;100.00
44001;BME280;29660;42.892;24.710;2023-05-23T18:09:33;95778.34;;;9.81;100.00
44001;BME280;29660;42.892;24.710;2023-05-23T18:14:55;96342.88;;;13.69;100.00
44001;BME280;29660;42.892;24.710;2023-05-23T18:20:17;96204.16;;;12.60;100.00
44001;BME280;29660;42.892;24.710;2023-05-23T18:25:40;96494.91;;;14.36;100.00
44001;BME280;29660;42.892;24.710;2023-05-23T18:31:02;96333.47;;;12.90;100.00
44001;BME280;29660;42.892;24.710;2023-05-23T18:36:25;96786.56;;;15.64;100.00
44001;BME280;29660;42.892;24.710;2023-05-23T18:41:47;96729.06;;;15.18;100.00
44001;BME280;29660;42.892;24.710;2023-05-23T18:47:09;96517.22;;;13.46;100.00
44001;BME280;29660;42.892;24.710;2023-05-23T18:52:31;96266.63;;;11.94;100.00
44001;BME280;29660;42.892;24.710;2023-05-23T18:58:01;96268.31;;;11.73;100.00
44001;BME280;29660;42.892;24.710;2023-05-23T19:03:24;96363.22;;;12.27;100.00
44001;BME280;29660;42.892;24.710;2023-05-23T19:08:47;96832.59;;;14.98;100.00
44001;BME280;29660;42.892;24.710;2023-05-23T19:14:10;96796.56;;;15.00;100.00
44001;BME280;29660;42.892;24.710;2023-05-23T19:19:32;96268.41;;;11.50;100.00
44001;BME280;29660;42.892;24.710;2023-05-23T19:24:55;96217.00;;;10.88;100.00
44001;BME280;29660;42.892;24.710;2023-05-23T19:30:18;96825.50;;;14.85;100.00
44001;BME280;29660;42.892;24.710;2023-05-23T19:35:42;96278.69;;;11.26;100.00
44001;BME280;29660;42.892;24.710;2023-05-23T19:41:04;96520.56;;;12.51;100.00
44001;BME280;29660;42.892;24.710;2023-05-23T19:46:27;96667.91;;;13.61;100.00
44001;BME280;29660;42.892;24.710;2023-05-23T19:51:49;96836.28;;;14.59;100.00
44001;BME280;29660;42.892;24.710;2023-05-23T19:57:11;96779.00;;;13.63;100.00
44001;BME280;29660;42.892;24.710;2023-05-23T20:02:34;96836.38;;;13.62;100.00
44001;BME280;29660;42.892;24.710;2023-05-23T20:07:56;96924.84;;;14.11;100.00
44001;BME280;29660;42.892;24.710;2023-05-23T20:13:18;96432.44;;;11.04;100.00
44001;BME280;29660;42.892;24.710;2023-05-23T20:18:41;96481.41;;;10.86;100.00
44001;BME280;29660;42.892;24.710;2023-05-23T20:24:03;96810.50;;;13.18;100.00
44001;BME280;29660;42.892;24.710;2023-05-23T20:29:26;96855.69;;;13.42;100.00
44001;BME280;29660;42.892;24.710;2023-05-23T20:34:48;96834.59;;;13.18;100.00
44001;BME280;29660;42.892;24.710;2023-05-23T20:40:10;96197.50;;;9.02;100.00
44001;BME280;29660;42.892;24.710;2023-05-23T20:45:34;96270.31;;;9.34;100.00
44001;BME280;29660;42.892;24.710;2023-05-23T20:50:56;96478.22;;;10.62;100.00
44001;BME280;29660;42.892;24.710;2023-05-23T20:56:19;96862.13;;;13.10;100.00
44001;BME280;29660;42.892;24.710;2023-05-23T21:01:43;96374.03;;;9.80;100.00
44001;BME280;29660;42.892;24.710;2023-05-23T21:07:05;96676.75;;;11.61;100.00
44001;BME280;29660;42.892;24.710;2023-05-23T21:12:27;96301.81;;;8.99;100.00
44001;BME280;29660;42.892;24.710;2023-05-23T21:17:49;96654.59;;;11.24;100.00
44001;BME280;29660;42.892;24.710;2023-05-23T21:23:12;96223.56;;;8.26;100.00
44001;BME280;29660;42.892;24.710;2023-05-23T21:28:34;96372.13;;;8.42;100.00
44001;BME280;29660;42.892;24.710;2023-05-23T21:33:56;96819.47;;;11.82;100.00
44001;BME280;29660;42.892;24.710;2023-05-23T21:39:26;96260.75;;;8.07;100.00
44001;BME280;29660;42.892;24.710;2023-05-23T21:44:53;96140.19;;;7.19;100.00
44001;BME280;29660;42.892;24.710;2023-05-23T21:50:16;95804.16;;;5.03;100.00
44001;BME280;29660;42.892;24.710;2023-05-23T21:55:38;96889.28;;;11.94;100.00
44001;BME280;29660;42.892;24.710;2023-05-23T22:01:00;96966.72;;;11.67;100.00
44001;BME280;29660;42.892;24.710;2023-05-23T22:06:23;96278.53;;;7.69;100.00
44001;BME280;29660;42.892;24.710;2023-05-23T22:11:45;96568.28;;;9.39;100.00
44001;BME280;29660;42.892;24.710;2023-05-23T22:17:07;96887.34;;;11.53;100.00
44001;BME280;29660;42.892;24.710;2023-05-23T22:22:30;96838.13;;;10.67;100.00
44001;BME280;29660;42.892;24.710;2023-05-23T22:27:53;96722.00;;;10.42;100.00
44001;BME280;29660;42.892;24.710;2023-05-23T22:33:15;96163.06;;;6.91;100.00
44001;BME280;29660;42.892;24.710;2023-05-23T22:38:37;96803.00;;;10.92;100.00
44001;BME280;29660;42.892;24.710;2023-05-23T22:43:59;96264.22;;;7.46;100.00
44001;BME280;29660;42.892;24.710;2023-05-23T22:49:21;96841.25;;;11.20;100.00
44001;BME280;29660;42.892;24.710;2023-05-23T22:54:46;96688.03;;;10.15;100.00
44001;BME280;29660;42.892;24.710;2023-05-23T23:00:08;96782.00;;;10.58;100.00
44001;BME280;29660;42.892;24.710;2023-05-23T23:05:32;96761.06;;;9.95;100.00
44001;BME280;29660;42.892;24.710;2023-05-23T23:10:54;96233.97;;;7.04;100.00
44001;BME280;29660;42.892;24.710;2023-05-23T23:16:16;96227.44;;;6.97;100.00
44001;BME280;29660;42.892;24.710;2023-05-23T23:21:40;96245.22;;;6.91;100.00
44001;BME280;29660;42.892;24.710;2023-05-23T23:27:02;96271.94;;;7.00;100.00
44001;BME280;29660;42.892;24.710;2023-05-23T23:32:24;96847.00;;;10.62;100.00
44001;BME280;29660;42.892;24.710;2023-05-23T23:37:47;96123.75;;;5.97;100.00
44001;BME280;29660;42.892;24.710;2023-05-23T23:43:12;96283.94;;;6.92;100.00
44001;BME280;29660;42.892;24.710;2023-05-23T23:48:35;96685.38;;;9.58;100.00
44001;BME280;29660;42.892;24.710;2023-05-23T23:53:57;96825.25;;;9.93;100.00
44001;BME280;29660;42.892;24.710;2023-05-23T23:59:20;96182.28;;;6.25;100.00
